Holiday Island, Arkansas
Current Conditions -  °F | °C
As of 7:57 AM on Tuesday 27 Jan 2015 (Local Time) from KROG Reporting Station
Clear Clear  
Wind Chill: 38°   Ceiling: Unl
Heat Index: 38°   Visibility: 10mi
Dew Point: 33°   Wind: 0mph
Humidity: 83%   Direction: NA
Pressure: 30.15"   Gusts: NA
Location:  36.4778°N, 93.7346°W
Report Text: KROG 271357Z 00000KT 10SM CLR 03/01 A3015 RMK AO2 SLP212 T00330006
Loading
Personal Weather Stations






























Interactive Weather Map New forecast layout! Learn more

10-Day Weather Forecast

Advertisements
Track Severe Weather on mobile